sensor_id;sensor_type;location;lat;lon;timestamp;P1;durP1;ratioP1;P2;durP2;ratioP2
5199;SDS011;2619;47.868;11.892;2022-07-21T00:01:33;8.83;;;7.43;;
5199;SDS011;2619;47.868;11.892;2022-07-21T00:03:59;10.20;;;7.63;;
5199;SDS011;2619;47.868;11.892;2022-07-21T00:06:25;9.80;;;7.73;;
5199;SDS011;2619;47.868;11.892;2022-07-21T00:08:50;9.20;;;8.20;;
5199;SDS011;2619;47.868;11.892;2022-07-21T00:11:17;11.87;;;7.50;;
5199;SDS011;2619;47.868;11.892;2022-07-21T00:13:42;13.10;;;8.10;;
5199;SDS011;2619;47.868;11.892;2022-07-21T00:16:08;9.93;;;8.10;;
5199;SDS011;2619;47.868;11.892;2022-07-21T00:18:34;8.83;;;7.80;;
5199;SDS011;2619;47.868;11.892;2022-07-21T00:21:00;8.40;;;7.47;;
5199;SDS011;2619;47.868;11.892;2022-07-21T00:23:26;18.90;;;9.10;;
5199;SDS011;2619;47.868;11.892;2022-07-21T00:25:52;10.43;;;8.03;;
5199;SDS011;2619;47.868;11.892;2022-07-21T00:28:18;9.37;;;7.90;;
5199;SDS011;2619;47.868;11.892;2022-07-21T00:30:45;8.60;;;7.80;;
5199;SDS011;2619;47.868;11.892;2022-07-21T00:33:11;13.87;;;9.47;;
5199;SDS011;2619;47.868;11.892;2022-07-21T00:35:36;14.73;;;8.07;;
5199;SDS011;2619;47.868;11.892;2022-07-21T00:38:02;9.73;;;7.90;;
5199;SDS011;2619;47.868;11.892;2022-07-21T00:40:29;11.20;;;8.70;;
5199;SDS011;2619;47.868;11.892;2022-07-21T00:42:55;9.43;;;8.50;;
5199;SDS011;2619;47.868;11.892;2022-07-21T00:45:21;10.33;;;9.37;;
5199;SDS011;2619;47.868;11.892;2022-07-21T00:47:46;11.23;;;9.40;;
5199;SDS011;2619;47.868;11.892;2022-07-21T00:50:13;9.43;;;8.50;;
5199;SDS011;2619;47.868;11.892;2022-07-21T00:52:41;10.70;;;9.13;;
5199;SDS011;2619;47.868;11.892;2022-07-21T00:55:09;9.97;;;9.03;;
5199;SDS011;2619;47.868;11.892;2022-07-21T00:57:37;10.87;;;8.90;;
5199;SDS011;2619;47.868;11.892;2022-07-21T01:00:04;9.30;;;8.40;;
5199;SDS011;2619;47.868;11.892;2022-07-21T01:02:31;9.90;;;8.87;;
5199;SDS011;2619;47.868;11.892;2022-07-21T01:05:00;9.37;;;8.47;;
5199;SDS011;2619;47.868;11.892;2022-07-21T01:07:26;8.77;;;7.90;;
5199;SDS011;2619;47.868;11.892;2022-07-21T01:09:51;8.97;;;8.07;;
5199;SDS011;2619;47.868;11.892;2022-07-21T01:12:17;11.90;;;8.87;;
5199;SDS011;2619;47.868;11.892;2022-07-21T01:14:43;10.93;;;8.87;;
5199;SDS011;2619;47.868;11.892;2022-07-21T01:17:09;10.37;;;9.27;;
5199;SDS011;2619;47.868;11.892;2022-07-21T01:19:35;9.80;;;8.73;;
5199;SDS011;2619;47.868;11.892;2022-07-21T01:22:01;9.80;;;8.93;;
5199;SDS011;2619;47.868;11.892;2022-07-21T01:24:27;9.97;;;8.97;;
5199;SDS011;2619;47.868;11.892;2022-07-21T01:26:53;9.70;;;8.27;;
5199;SDS011;2619;47.868;11.892;2022-07-21T01:29:19;16.33;;;9.07;;
5199;SDS011;2619;47.868;11.892;2022-07-21T01:31:45;9.10;;;8.20;;
5199;SDS011;2619;47.868;11.892;2022-07-21T01:34:12;9.13;;;8.23;;
5199;SDS011;2619;47.868;11.892;2022-07-21T01:36:38;11.13;;;8.40;;
5199;SDS011;2619;47.868;11.892;2022-07-21T01:39:05;10.50;;;9.50;;
5199;SDS011;2619;47.868;11.892;2022-07-21T01:41:49;9.03;;;8.20;;
5199;SDS011;2619;47.868;11.892;2022-07-21T01:44:15;9.70;;;8.80;;
5199;SDS011;2619;47.868;11.892;2022-07-21T01:46:43;9.67;;;8.67;;
5199;SDS011;2619;47.868;11.892;2022-07-21T01:49:11;10.23;;;8.90;;
5199;SDS011;2619;47.868;11.892;2022-07-21T01:51:38;11.07;;;9.80;;
5199;SDS011;2619;47.868;11.892;2022-07-21T01:54:04;10.60;;;9.60;;
5199;SDS011;2619;47.868;11.892;2022-07-21T01:56:32;9.50;;;8.33;;
5199;SDS011;2619;47.868;11.892;2022-07-21T01:58:58;9.77;;;8.80;;
5199;SDS011;2619;47.868;11.892;2022-07-21T02:01:25;11.93;;;8.83;;
5199;SDS011;2619;47.868;11.892;2022-07-21T02:03:52;10.60;;;8.87;;
5199;SDS011;2619;47.868;11.892;2022-07-21T02:06:18;9.87;;;8.80;;
5199;SDS011;2619;47.868;11.892;2022-07-21T02:08:44;11.57;;;9.40;;
5199;SDS011;2619;47.868;11.892;2022-07-21T02:11:10;10.43;;;9.53;;
5199;SDS011;2619;47.868;11.892;2022-07-21T02:13:37;13.13;;;9.27;;
5199;SDS011;2619;47.868;11.892;2022-07-21T02:16:03;13.57;;;9.93;;
5199;SDS011;2619;47.868;11.892;2022-07-21T02:18:29;9.50;;;8.50;;
5199;SDS011;2619;47.868;11.892;2022-07-21T02:20:55;9.20;;;8.27;;
5199;SDS011;2619;47.868;11.892;2022-07-21T02:23:22;9.40;;;8.60;;
5199;SDS011;2619;47.868;11.892;2022-07-21T02:25:48;10.03;;;9.13;;
5199;SDS011;2619;47.868;11.892;2022-07-21T02:28:14;10.70;;;9.17;;
5199;SDS011;2619;47.868;11.892;2022-07-21T02:30:40;9.83;;;8.83;;
5199;SDS011;2619;47.868;11.892;2022-07-21T02:33:06;10.00;;;7.87;;
5199;SDS011;2619;47.868;11.892;2022-07-21T02:35:32;9.73;;;8.17;;
5199;SDS011;2619;47.868;11.892;2022-07-21T02:37:58;9.97;;;8.27;;
5199;SDS011;2619;47.868;11.892;2022-07-21T02:40:24;9.60;;;8.37;;
5199;SDS011;2619;47.868;11.892;2022-07-21T02:42:49;9.37;;;8.37;;
5199;SDS011;2619;47.868;11.892;2022-07-21T02:45:15;10.83;;;8.07;;
5199;SDS011;2619;47.868;11.892;2022-07-21T02:47:48;10.17;;;9.27;;
5199;SDS011;2619;47.868;11.892;2022-07-21T02:50:24;11.17;;;8.23;;
5199;SDS011;2619;47.868;11.892;2022-07-21T02:52:58;9.87;;;8.80;;
5199;SDS011;2619;47.868;11.892;2022-07-21T02:55:25;11.50;;;8.43;;
5199;SDS011;2619;47.868;11.892;2022-07-21T02:58:08;11.10;;;8.93;;
5199;SDS011;2619;47.868;11.892;2022-07-21T03:00:44;9.90;;;8.90;;
5199;SDS011;2619;47.868;11.892;2022-07-21T03:03:13;12.17;;;8.87;;
5199;SDS011;2619;47.868;11.892;2022-07-21T03:05:39;10.20;;;8.37;;
5199;SDS011;2619;47.868;11.892;2022-07-21T03:08:05;9.90;;;9.00;;
5199;SDS011;2619;47.868;11.892;2022-07-21T03:10:32;10.37;;;8.60;;
5199;SDS011;2619;47.868;11.892;2022-07-21T03:12:58;10.60;;;9.50;;
5199;SDS011;2619;47.868;11.892;2022-07-21T03:15:24;10.80;;;9.80;;
5199;SDS011;2619;47.868;11.892;2022-07-21T03:17:51;10.63;;;9.63;;
5199;SDS011;2619;47.868;11.892;2022-07-21T03:20:22;11.37;;;9.70;;
5199;SDS011;2619;47.868;11.892;2022-07-21T03:22:48;10.53;;;9.47;;
5199;SDS011;2619;47.868;11.892;2022-07-21T03:25:14;11.53;;;10.43;;
5199;SDS011;2619;47.868;11.892;2022-07-21T03:27:39;10.57;;;9.50;;
5199;SDS011;2619;47.868;11.892;2022-07-21T03:30:06;10.30;;;9.30;;
5199;SDS011;2619;47.868;11.892;2022-07-21T03:32:33;12.17;;;10.90;;
5199;SDS011;2619;47.868;11.892;2022-07-21T03:34:59;13.03;;;11.83;;
5199;SDS011;2619;47.868;11.892;2022-07-21T03:37:26;13.33;;;12.07;;
5199;SDS011;2619;47.868;11.892;2022-07-21T03:39:51;11.83;;;10.73;;
5199;SDS011;2619;47.868;11.892;2022-07-21T03:42:17;13.30;;;11.27;;
5199;SDS011;2619;47.868;11.892;2022-07-21T03:44:43;15.10;;;12.17;;
5199;SDS011;2619;47.868;11.892;2022-07-21T03:47:09;12.43;;;11.33;;
5199;SDS011;2619;47.868;11.892;2022-07-21T03:49:34;13.70;;;12.40;;
5199;SDS011;2619;47.868;11.892;2022-07-21T03:52:00;12.60;;;11.30;;
5199;SDS011;2619;47.868;11.892;2022-07-21T03:54:26;12.90;;;11.60;;
5199;SDS011;2619;47.868;11.892;2022-07-21T03:56:52;12.67;;;10.90;;
5199;SDS011;2619;47.868;11.892;2022-07-21T03:59:17;13.63;;;11.63;;
5199;SDS011;2619;47.868;11.892;2022-07-21T04:01:43;12.53;;;11.27;;
5199;SDS011;2619;47.868;11.892;2022-07-21T04:04:09;12.23;;;11.10;;
5199;SDS011;2619;47.868;11.892;2022-07-21T04:06:34;13.23;;;11.90;;
5199;SDS011;2619;47.868;11.892;2022-07-21T04:09:00;12.30;;;11.20;;
5199;SDS011;2619;47.868;11.892;2022-07-21T04:11:26;11.47;;;10.47;;
5199;SDS011;2619;47.868;11.892;2022-07-21T04:13:52;11.37;;;10.27;;
5199;SDS011;2619;47.868;11.892;2022-07-21T04:16:17;11.70;;;10.50;;
5199;SDS011;2619;47.868;11.892;2022-07-21T04:18:43;13.33;;;10.50;;
5199;SDS011;2619;47.868;11.892;2022-07-21T04:21:09;11.37;;;10.13;;
5199;SDS011;2619;47.868;11.892;2022-07-21T04:23:34;12.63;;;11.33;;
5199;SDS011;2619;47.868;11.892;2022-07-21T04:26:00;11.63;;;10.43;;
5199;SDS011;2619;47.868;11.892;2022-07-21T04:28:25;15.17;;;10.90;;
5199;SDS011;2619;47.868;11.892;2022-07-21T04:30:51;12.30;;;10.93;;
5199;SDS011;2619;47.868;11.892;2022-07-21T04:33:17;13.00;;;11.70;;
5199;SDS011;2619;47.868;11.892;2022-07-21T04:35:42;12.63;;;11.40;;
5199;SDS011;2619;47.868;11.892;2022-07-21T04:38:08;13.07;;;11.80;;
5199;SDS011;2619;47.868;11.892;2022-07-21T04:40:35;12.03;;;10.83;;
5199;SDS011;2619;47.868;11.892;2022-07-21T04:43:01;12.97;;;11.10;;
5199;SDS011;2619;47.868;11.892;2022-07-21T04:45:27;13.40;;;12.17;;
5199;SDS011;2619;47.868;11.892;2022-07-21T04:47:53;13.07;;;11.73;;
5199;SDS011;2619;47.868;11.892;2022-07-21T04:50:21;11.80;;;10.70;;
5199;SDS011;2619;47.868;11.892;2022-07-21T04:52:48;12.53;;;11.40;;
5199;SDS011;2619;47.868;11.892;2022-07-21T04:55:14;12.40;;;10.90;;
5199;SDS011;2619;47.868;11.892;2022-07-21T04:57:41;13.93;;;12.43;;
5199;SDS011;2619;47.868;11.892;2022-07-21T05:00:09;12.83;;;11.53;;
5199;SDS011;2619;47.868;11.892;2022-07-21T05:02:37;13.50;;;11.43;;
5199;SDS011;2619;47.868;11.892;2022-07-21T05:05:03;12.07;;;10.87;;
5199;SDS011;2619;47.868;11.892;2022-07-21T05:07:30;12.77;;;11.33;;
5199;SDS011;2619;47.868;11.892;2022-07-21T05:09:56;13.30;;;12.10;;
5199;SDS011;2619;47.868;11.892;2022-07-21T05:12:23;13.10;;;11.80;;
5199;SDS011;2619;47.868;11.892;2022-07-21T05:14:49;13.13;;;11.90;;
5199;SDS011;2619;47.868;11.892;2022-07-21T05:17:15;13.07;;;11.90;;
5199;SDS011;2619;47.868;11.892;2022-07-21T05:19:41;11.60;;;10.60;;
5199;SDS011;2619;47.868;11.892;2022-07-21T05:22:08;13.03;;;11.53;;
5199;SDS011;2619;47.868;11.892;2022-07-21T05:24:34;11.83;;;10.50;;
5199;SDS011;2619;47.868;11.892;2022-07-21T05:26:59;12.90;;;11.70;;
5199;SDS011;2619;47.868;11.892;2022-07-21T05:29:25;11.93;;;10.73;;
5199;SDS011;2619;47.868;11.892;2022-07-21T05:31:50;11.50;;;10.50;;
5199;SDS011;2619;47.868;11.892;2022-07-21T05:34:16;12.40;;;11.30;;
5199;SDS011;2619;47.868;11.892;2022-07-21T05:36:42;13.30;;;11.83;;
5199;SDS011;2619;47.868;11.892;2022-07-21T05:39:07;13.17;;;11.77;;
5199;SDS011;2619;47.868;11.892;2022-07-21T05:41:33;12.77;;;11.67;;
5199;SDS011;2619;47.868;11.892;2022-07-21T05:43:58;13.27;;;12.17;;
5199;SDS011;2619;47.868;11.892;2022-07-21T05:46:24;14.83;;;13.30;;
5199;SDS011;2619;47.868;11.892;2022-07-21T05:48:50;13.50;;;12.07;;
5199;SDS011;2619;47.868;11.892;2022-07-21T05:51:17;12.93;;;11.50;;
5199;SDS011;2619;47.868;11.892;2022-07-21T05:53:43;13.20;;;12.10;;
5199;SDS011;2619;47.868;11.892;2022-07-21T05:56:09;12.27;;;11.23;;
5199;SDS011;2619;47.868;11.892;2022-07-21T05:58:35;12.63;;;11.53;;
5199;SDS011;2619;47.868;11.892;2022-07-21T06:01:01;13.20;;;12.00;;
5199;SDS011;2619;47.868;11.892;2022-07-21T06:03:48;13.60;;;12.40;;
5199;SDS011;2619;47.868;11.892;2022-07-21T06:06:15;13.40;;;11.20;;
5199;SDS011;2619;47.868;11.892;2022-07-21T06:08:42;13.93;;;12.70;;
5199;SDS011;2619;47.868;11.892;2022-07-21T06:11:10;13.10;;;12.00;;
5199;SDS011;2619;47.868;11.892;2022-07-21T06:13:38;12.70;;;11.40;;
5199;SDS011;2619;47.868;11.892;2022-07-21T06:16:05;13.10;;;11.90;;
5199;SDS011;2619;47.868;11.892;2022-07-21T06:18:31;13.50;;;12.30;;
5199;SDS011;2619;47.868;11.892;2022-07-21T06:20:57;13.17;;;12.07;;
5199;SDS011;2619;47.868;11.892;2022-07-21T06:23:23;12.67;;;11.53;;
5199;SDS011;2619;47.868;11.892;2022-07-21T06:25:50;13.37;;;12.00;;
5199;SDS011;2619;47.868;11.892;2022-07-21T06:28:16;12.93;;;11.63;;
5199;SDS011;2619;47.868;11.892;2022-07-21T06:30:42;12.80;;;11.63;;
5199;SDS011;2619;47.868;11.892;2022-07-21T06:33:08;14.60;;;12.43;;
5199;SDS011;2619;47.868;11.892;2022-07-21T06:35:34;12.63;;;11.53;;
5199;SDS011;2619;47.868;11.892;2022-07-21T06:37:59;12.53;;;11.43;;
5199;SDS011;2619;47.868;11.892;2022-07-21T06:40:25;13.73;;;12.63;;
5199;SDS011;2619;47.868;11.892;2022-07-21T06:42:51;11.90;;;10.90;;
5199;SDS011;2619;47.868;11.892;2022-07-21T06:45:17;12.90;;;11.90;;
5199;SDS011;2619;47.868;11.892;2022-07-21T06:47:43;13.60;;;12.30;;
5199;SDS011;2619;47.868;11.892;2022-07-21T06:50:08;13.93;;;12.63;;
5199;SDS011;2619;47.868;11.892;2022-07-21T06:52:34;13.10;;;11.30;;
5199;SDS011;2619;47.868;11.892;2022-07-21T06:55:00;13.30;;;12.20;;
5199;SDS011;2619;47.868;11.892;2022-07-21T06:57:27;15.37;;;12.20;;
5199;SDS011;2619;47.868;11.892;2022-07-21T06:59:52;12.83;;;11.67;;
5199;SDS011;2619;47.868;11.892;2022-07-21T07:02:18;15.47;;;13.90;;
5199;SDS011;2619;47.868;11.892;2022-07-21T07:04:43;13.20;;;12.10;;
5199;SDS011;2619;47.868;11.892;2022-07-21T07:07:10;14.53;;;13.13;;
5199;SDS011;2619;47.868;11.892;2022-07-21T07:09:35;13.83;;;12.43;;
5199;SDS011;2619;47.868;11.892;2022-07-21T07:12:01;14.00;;;12.90;;
5199;SDS011;2619;47.868;11.892;2022-07-21T07:14:31;13.93;;;12.73;;
5199;SDS011;2619;47.868;11.892;2022-07-21T07:16:57;16.63;;;13.33;;
5199;SDS011;2619;47.868;11.892;2022-07-21T07:19:23;14.13;;;12.80;;
5199;SDS011;2619;47.868;11.892;2022-07-21T07:21:49;14.13;;;12.70;;
5199;SDS011;2619;47.868;11.892;2022-07-21T07:24:15;14.50;;;13.20;;
5199;SDS011;2619;47.868;11.892;2022-07-21T07:26:40;13.93;;;12.70;;
5199;SDS011;2619;47.868;11.892;2022-07-21T07:29:06;14.13;;;12.87;;
5199;SDS011;2619;47.868;11.892;2022-07-21T07:31:32;15.93;;;14.57;;
5199;SDS011;2619;47.868;11.892;2022-07-21T07:33:57;15.30;;;14.00;;
5199;SDS011;2619;47.868;11.892;2022-07-21T07:36:25;15.40;;;13.50;;
5199;SDS011;2619;47.868;11.892;2022-07-21T07:38:52;14.90;;;13.40;;
5199;SDS011;2619;47.868;11.892;2022-07-21T07:41:19;15.10;;;13.53;;
5199;SDS011;2619;47.868;11.892;2022-07-21T07:43:45;14.60;;;13.20;;
5199;SDS011;2619;47.868;11.892;2022-07-21T07:46:11;13.80;;;12.60;;
5199;SDS011;2619;47.868;11.892;2022-07-21T07:48:38;13.97;;;12.67;;
5199;SDS011;2619;47.868;11.892;2022-07-21T07:51:05;14.57;;;13.30;;
5199;SDS011;2619;47.868;11.892;2022-07-21T07:53:31;14.03;;;12.87;;
5199;SDS011;2619;47.868;11.892;2022-07-21T07:55:57;14.87;;;13.43;;
5199;SDS011;2619;47.868;11.892;2022-07-21T07:58:23;14.67;;;13.37;;
5199;SDS011;2619;47.868;11.892;2022-07-21T08:00:48;14.37;;;12.97;;
5199;SDS011;2619;47.868;11.892;2022-07-21T08:03:14;13.73;;;12.43;;
5199;SDS011;2619;47.868;11.892;2022-07-21T08:05:40;13.77;;;12.63;;
5199;SDS011;2619;47.868;11.892;2022-07-21T08:08:05;14.10;;;12.90;;
5199;SDS011;2619;47.868;11.892;2022-07-21T08:10:31;15.13;;;13.83;;
5199;SDS011;2619;47.868;11.892;2022-07-21T08:12:57;14.70;;;13.40;;
5199;SDS011;2619;47.868;11.892;2022-07-21T08:15:22;13.83;;;12.70;;
5199;SDS011;2619;47.868;11.892;2022-07-21T08:17:48;14.63;;;13.20;;
5199;SDS011;2619;47.868;11.892;2022-07-21T08:20:14;15.47;;;13.97;;
5199;SDS011;2619;47.868;11.892;2022-07-21T08:22:41;14.70;;;13.30;;
5199;SDS011;2619;47.868;11.892;2022-07-21T08:25:06;16.10;;;14.80;;
5199;SDS011;2619;47.868;11.892;2022-07-21T08:27:32;15.70;;;14.23;;
5199;SDS011;2619;47.868;11.892;2022-07-21T08:29:58;14.60;;;13.30;;
5199;SDS011;2619;47.868;11.892;2022-07-21T08:32:23;15.20;;;13.90;;
5199;SDS011;2619;47.868;11.892;2022-07-21T08:34:49;15.97;;;14.67;;
5199;SDS011;2619;47.868;11.892;2022-07-21T08:37:15;16.77;;;15.27;;
5199;SDS011;2619;47.868;11.892;2022-07-21T08:39:43;15.83;;;14.43;;
5199;SDS011;2619;47.868;11.892;2022-07-21T08:42:09;15.83;;;14.53;;
5199;SDS011;2619;47.868;11.892;2022-07-21T08:44:37;17.10;;;15.60;;
5199;SDS011;2619;47.868;11.892;2022-07-21T08:47:03;17.20;;;15.60;;
5199;SDS011;2619;47.868;11.892;2022-07-21T08:49:30;18.07;;;16.37;;
5199;SDS011;2619;47.868;11.892;2022-07-21T08:51:58;20.87;;;16.93;;
5199;SDS011;2619;47.868;11.892;2022-07-21T08:54:24;18.03;;;16.13;;
5199;SDS011;2619;47.868;11.892;2022-07-21T08:56:49;18.10;;;16.50;;
5199;SDS011;2619;47.868;11.892;2022-07-21T08:59:15;17.50;;;15.80;;
5199;SDS011;2619;47.868;11.892;2022-07-21T09:01:41;18.00;;;16.40;;
5199;SDS011;2619;47.868;11.892;2022-07-21T09:04:27;18.33;;;16.73;;
5199;SDS011;2619;47.868;11.892;2022-07-21T09:06:55;18.57;;;16.87;;
5199;SDS011;2619;47.868;11.892;2022-07-21T09:09:26;19.50;;;17.33;;
5199;SDS011;2619;47.868;11.892;2022-07-21T09:11:54;19.37;;;17.57;;
5199;SDS011;2619;47.868;11.892;2022-07-21T09:14:21;18.77;;;17.10;;
5199;SDS011;2619;47.868;11.892;2022-07-21T09:16:52;16.57;;;15.00;;
5199;SDS011;2619;47.868;11.892;2022-07-21T09:21:57;19.07;;;17.27;;
5199;SDS011;2619;47.868;11.892;2022-07-21T09:24:25;18.60;;;16.90;;
5199;SDS011;2619;47.868;11.892;2022-07-21T09:27:00;15.47;;;14.07;;
5199;SDS011;2619;47.868;11.892;2022-07-21T09:37:28;11.90;;;10.80;;
5199;SDS011;2619;47.868;11.892;2022-07-21T09:39:57;12.60;;;11.50;;
5199;SDS011;2619;47.868;11.892;2022-07-21T09:45:02;13.30;;;11.90;;
5199;SDS011;2619;47.868;11.892;2022-07-21T09:47:34;13.63;;;12.23;;
5199;SDS011;2619;47.868;11.892;2022-07-21T09:50:02;12.37;;;11.23;;
5199;SDS011;2619;47.868;11.892;2022-07-21T09:52:33;13.47;;;12.27;;
5199;SDS011;2619;47.868;11.892;2022-07-21T09:55:04;13.53;;;12.33;;
5199;SDS011;2619;47.868;11.892;2022-07-21T09:57:32;13.37;;;12.23;;
5199;SDS011;2619;47.868;11.892;2022-07-21T09:59:58;14.60;;;13.30;;
5199;SDS011;2619;47.868;11.892;2022-07-21T10:02:28;13.97;;;12.70;;
5199;SDS011;2619;47.868;11.892;2022-07-21T10:07:21;13.83;;;12.50;;
5199;SDS011;2619;47.868;11.892;2022-07-21T10:09:47;13.73;;;12.43;;
5199;SDS011;2619;47.868;11.892;2022-07-21T10:12:14;14.00;;;12.80;;
5199;SDS011;2619;47.868;11.892;2022-07-21T10:14:41;14.77;;;13.37;;
5199;SDS011;2619;47.868;11.892;2022-07-21T10:17:07;13.63;;;12.40;;
5199;SDS011;2619;47.868;11.892;2022-07-21T10:20:16;13.43;;;12.13;;
5199;SDS011;2619;47.868;11.892;2022-07-21T10:25:09;14.83;;;13.53;;
5199;SDS011;2619;47.868;11.892;2022-07-21T10:27:35;15.50;;;13.73;;
5199;SDS011;2619;47.868;11.892;2022-07-21T10:30:04;17.63;;;15.93;;
5199;SDS011;2619;47.868;11.892;2022-07-21T10:32:31;16.73;;;15.27;;
5199;SDS011;2619;47.868;11.892;2022-07-21T10:34:59;17.20;;;15.40;;
5199;SDS011;2619;47.868;11.892;2022-07-21T10:40:10;17.53;;;16.03;;
5199;SDS011;2619;47.868;11.892;2022-07-21T10:45:34;18.30;;;16.50;;
5199;SDS011;2619;47.868;11.892;2022-07-21T10:48:02;17.83;;;16.10;;
5199;SDS011;2619;47.868;11.892;2022-07-21T10:50:32;19.17;;;16.83;;
5199;SDS011;2619;47.868;11.892;2022-07-21T10:53:01;19.37;;;17.67;;
5199;SDS011;2619;47.868;11.892;2022-07-21T10:55:36;18.87;;;17.07;;
5199;SDS011;2619;47.868;11.892;2022-07-21T11:00:35;21.17;;;18.10;;
5199;SDS011;2619;47.868;11.892;2022-07-21T11:03:06;19.40;;;17.40;;
5199;SDS011;2619;47.868;11.892;2022-07-21T11:08:30;20.13;;;17.73;;
5199;SDS011;2619;47.868;11.892;2022-07-21T11:11:06;19.23;;;17.43;;
5199;SDS011;2619;47.868;11.892;2022-07-21T11:22:02;17.90;;;16.20;;
5199;SDS011;2619;47.868;11.892;2022-07-21T11:24:37;17.30;;;15.77;;
5199;SDS011;2619;47.868;11.892;2022-07-21T11:27:08;18.07;;;16.37;;
5199;SDS011;2619;47.868;11.892;2022-07-21T11:29:37;18.67;;;16.67;;
5199;SDS011;2619;47.868;11.892;2022-07-21T11:32:04;17.17;;;15.60;;
5199;SDS011;2619;47.868;11.892;2022-07-21T11:34:41;16.83;;;15.30;;
5199;SDS011;2619;47.868;11.892;2022-07-21T11:37:10;15.40;;;14.00;;
5199;SDS011;2619;47.868;11.892;2022-07-21T11:39:38;15.40;;;13.90;;
5199;SDS011;2619;47.868;11.892;2022-07-21T11:42:06;15.97;;;14.47;;
5199;SDS011;2619;47.868;11.892;2022-07-21T11:44:41;14.70;;;13.30;;
5199;SDS011;2619;47.868;11.892;2022-07-21T11:47:09;15.53;;;14.03;;
5199;SDS011;2619;47.868;11.892;2022-07-21T11:49:36;15.40;;;13.97;;
5199;SDS011;2619;47.868;11.892;2022-07-21T11:52:03;15.33;;;13.93;;
5199;SDS011;2619;47.868;11.892;2022-07-21T11:54:42;15.27;;;13.97;;
5199;SDS011;2619;47.868;11.892;2022-07-21T11:57:09;16.37;;;14.83;;
5199;SDS011;2619;47.868;11.892;2022-07-21T11:59:36;14.87;;;13.50;;
5199;SDS011;2619;47.868;11.892;2022-07-21T12:04:46;15.80;;;14.30;;
5199;SDS011;2619;47.868;11.892;2022-07-21T12:09:46;15.10;;;13.70;;
5199;SDS011;2619;47.868;11.892;2022-07-21T12:12:13;14.23;;;12.93;;
5199;SDS011;2619;47.868;11.892;2022-07-21T12:14:46;13.70;;;12.33;;
5199;SDS011;2619;47.868;11.892;2022-07-21T12:17:14;14.20;;;12.87;;
5199;SDS011;2619;47.868;11.892;2022-07-21T12:19:57;14.47;;;13.17;;
5199;SDS011;2619;47.868;11.892;2022-07-21T12:25:18;14.70;;;13.30;;
5199;SDS011;2619;47.868;11.892;2022-07-21T12:28:04;12.20;;;11.10;;
5199;SDS011;2619;47.868;11.892;2022-07-21T12:33:11;11.53;;;10.47;;
5199;SDS011;2619;47.868;11.892;2022-07-21T12:35:40;11.23;;;10.23;;
5199;SDS011;2619;47.868;11.892;2022-07-21T12:38:09;9.33;;;8.53;;
5199;SDS011;2619;47.868;11.892;2022-07-21T12:40:41;9.97;;;9.03;;
5199;SDS011;2619;47.868;11.892;2022-07-21T12:43:15;11.17;;;10.17;;
5199;SDS011;2619;47.868;11.892;2022-07-21T12:45:44;11.70;;;10.70;;
5199;SDS011;2619;47.868;11.892;2022-07-21T12:48:23;11.83;;;10.83;;
5199;SDS011;2619;47.868;11.892;2022-07-21T12:53:22;12.77;;;11.67;;
5199;SDS011;2619;47.868;11.892;2022-07-21T12:55:48;14.40;;;13.10;;
5199;SDS011;2619;47.868;11.892;2022-07-21T12:58:13;13.63;;;12.40;;
5199;SDS011;2619;47.868;11.892;2022-07-21T13:00:39;14.63;;;13.23;;
5199;SDS011;2619;47.868;11.892;2022-07-21T13:03:04;16.00;;;14.60;;
5199;SDS011;2619;47.868;11.892;2022-07-21T13:05:30;15.50;;;13.93;;
5199;SDS011;2619;47.868;11.892;2022-07-21T13:07:56;16.20;;;14.57;;
5199;SDS011;2619;47.868;11.892;2022-07-21T13:10:21;17.40;;;15.70;;
5199;SDS011;2619;47.868;11.892;2022-07-21T13:12:47;15.50;;;14.13;;
5199;SDS011;2619;47.868;11.892;2022-07-21T13:15:13;16.70;;;15.13;;
5199;SDS011;2619;47.868;11.892;2022-07-21T13:17:39;15.90;;;14.50;;
5199;SDS011;2619;47.868;11.892;2022-07-21T13:20:05;16.93;;;15.30;;
5199;SDS011;2619;47.868;11.892;2022-07-21T13:22:31;16.17;;;14.70;;
5199;SDS011;2619;47.868;11.892;2022-07-21T13:24:57;16.17;;;14.57;;
5199;SDS011;2619;47.868;11.892;2022-07-21T13:27:22;16.97;;;15.50;;
5199;SDS011;2619;47.868;11.892;2022-07-21T13:29:48;17.30;;;15.63;;
5199;SDS011;2619;47.868;11.892;2022-07-21T13:32:14;16.17;;;14.67;;
5199;SDS011;2619;47.868;11.892;2022-07-21T13:34:39;16.60;;;15.20;;
5199;SDS011;2619;47.868;11.892;2022-07-21T13:37:05;17.03;;;15.63;;
5199;SDS011;2619;47.868;11.892;2022-07-21T13:39:36;18.90;;;16.93;;
5199;SDS011;2619;47.868;11.892;2022-07-21T13:42:05;18.20;;;16.50;;
5199;SDS011;2619;47.868;11.892;2022-07-21T13:44:32;17.73;;;16.07;;
5199;SDS011;2619;47.868;11.892;2022-07-21T13:46:58;18.90;;;17.20;;
5199;SDS011;2619;47.868;11.892;2022-07-21T13:49:24;18.33;;;16.53;;
5199;SDS011;2619;47.868;11.892;2022-07-21T13:51:49;17.27;;;15.67;;
5199;SDS011;2619;47.868;11.892;2022-07-21T13:54:15;16.70;;;15.20;;
5199;SDS011;2619;47.868;11.892;2022-07-21T13:56:41;20.13;;;18.13;;
5199;SDS011;2619;47.868;11.892;2022-07-21T13:59:06;18.23;;;16.53;;
5199;SDS011;2619;47.868;11.892;2022-07-21T14:01:32;18.67;;;17.00;;
5199;SDS011;2619;47.868;11.892;2022-07-21T14:03:58;16.97;;;15.57;;
5199;SDS011;2619;47.868;11.892;2022-07-21T14:06:24;19.80;;;17.80;;
5199;SDS011;2619;47.868;11.892;2022-07-21T14:08:49;18.87;;;16.20;;
5199;SDS011;2619;47.868;11.892;2022-07-21T14:11:15;18.70;;;17.20;;
5199;SDS011;2619;47.868;11.892;2022-07-21T14:13:41;19.40;;;17.40;;
5199;SDS011;2619;47.868;11.892;2022-07-21T14:16:07;16.70;;;15.30;;
5199;SDS011;2619;47.868;11.892;2022-07-21T14:18:33;17.20;;;15.70;;
5199;SDS011;2619;47.868;11.892;2022-07-21T14:20:59;19.03;;;17.30;;
5199;SDS011;2619;47.868;11.892;2022-07-21T14:23:25;17.00;;;15.50;;
5199;SDS011;2619;47.868;11.892;2022-07-21T14:25:51;20.57;;;18.67;;
5199;SDS011;2619;47.868;11.892;2022-07-21T14:28:17;19.07;;;17.13;;
5199;SDS011;2619;47.868;11.892;2022-07-21T14:30:44;18.80;;;16.90;;
5199;SDS011;2619;47.868;11.892;2022-07-21T14:33:09;18.90;;;17.00;;
5199;SDS011;2619;47.868;11.892;2022-07-21T14:35:35;20.73;;;18.70;;
5199;SDS011;2619;47.868;11.892;2022-07-21T14:38:01;18.90;;;17.20;;
5199;SDS011;2619;47.868;11.892;2022-07-21T14:40:27;18.07;;;16.50;;
5199;SDS011;2619;47.868;11.892;2022-07-21T14:42:53;20.03;;;18.07;;
5199;SDS011;2619;47.868;11.892;2022-07-21T14:45:19;22.83;;;17.03;;
5199;SDS011;2619;47.868;11.892;2022-07-21T14:47:46;19.27;;;17.57;;
5199;SDS011;2619;47.868;11.892;2022-07-21T14:50:12;20.20;;;18.30;;
5199;SDS011;2619;47.868;11.892;2022-07-21T14:52:39;17.30;;;15.80;;
5199;SDS011;2619;47.868;11.892;2022-07-21T14:55:05;17.50;;;15.87;;
5199;SDS011;2619;47.868;11.892;2022-07-21T14:57:32;19.23;;;17.50;;
5199;SDS011;2619;47.868;11.892;2022-07-21T14:59:58;18.70;;;16.90;;
5199;SDS011;2619;47.868;11.892;2022-07-21T15:02:24;18.17;;;16.47;;
5199;SDS011;2619;47.868;11.892;2022-07-21T15:04:49;17.60;;;16.00;;
5199;SDS011;2619;47.868;11.892;2022-07-21T15:07:15;18.37;;;16.63;;
5199;SDS011;2619;47.868;11.892;2022-07-21T15:09:41;17.50;;;15.80;;
5199;SDS011;2619;47.868;11.892;2022-07-21T15:12:07;17.20;;;15.70;;
5199;SDS011;2619;47.868;11.892;2022-07-21T15:14:33;16.80;;;15.40;;
5199;SDS011;2619;47.868;11.892;2022-07-21T15:16:59;17.60;;;16.00;;
5199;SDS011;2619;47.868;11.892;2022-07-21T15:19:24;19.20;;;17.40;;
5199;SDS011;2619;47.868;11.892;2022-07-21T15:21:50;18.40;;;16.80;;
5199;SDS011;2619;47.868;11.892;2022-07-21T15:24:15;18.27;;;16.67;;
5199;SDS011;2619;47.868;11.892;2022-07-21T15:26:41;18.63;;;16.87;;
5199;SDS011;2619;47.868;11.892;2022-07-21T15:29:08;17.00;;;15.60;;